createdAt,value
2023-05-16T00:01:12.787Z,2.58
2023-05-16T00:06:15.636Z,2.53
2023-05-16T00:11:18.105Z,2.40
2023-05-16T00:16:21.689Z,2.38
2023-05-16T00:21:24.930Z,2.08
2023-05-16T00:26:27.021Z,2.10
2023-05-16T00:31:29.189Z,2.78
2023-05-16T00:36:31.690Z,2.80
2023-05-16T00:41:34.378Z,3.05
2023-05-16T00:46:36.551Z,2.70
2023-05-16T00:51:39.388Z,2.38
2023-05-16T00:56:41.449Z,1.80
2023-05-16T01:01:46.883Z,2.70
2023-05-16T01:06:49.118Z,2.10
2023-05-16T01:12:03.765Z,2.10
2023-05-16T01:17:21.299Z,2.22
2023-05-16T01:22:33.442Z,1.85
2023-05-16T01:27:36.463Z,1.95
2023-05-16T01:32:40.410Z,1.85
2023-05-16T01:38:02.855Z,1.88
2023-05-16T01:43:10.955Z,2.33
2023-05-16T01:48:26.775Z,2.38
2023-05-16T01:53:36.740Z,1.80
2023-05-16T01:58:39.518Z,1.90
2023-05-16T02:03:41.684Z,2.00
2023-05-16T02:08:43.946Z,2.10
2023-05-16T02:13:46.104Z,2.00
2023-05-16T02:18:48.406Z,2.53
2023-05-16T02:23:50.650Z,2.55
2023-05-16T02:28:52.857Z,2.00
2023-05-16T02:33:54.942Z,1.95
2023-05-16T02:38:57.038Z,2.53
2023-05-16T02:43:59.086Z,2.40
2023-05-16T02:49:01.822Z,2.33
2023-05-16T02:54:04.200Z,2.00
2023-05-16T02:59:06.405Z,1.75
2023-05-16T03:04:08.743Z,3.30
2023-05-16T03:09:11.067Z,2.20
2023-05-16T03:14:13.197Z,2.40
2023-05-16T03:19:15.478Z,2.05
2023-05-16T03:24:17.561Z,2.15
2023-05-16T03:29:19.826Z,2.17
2023-05-16T03:34:21.978Z,2.20
2023-05-16T03:39:24.181Z,2.17
2023-05-16T03:44:26.240Z,2.35
2023-05-16T03:49:28.513Z,2.20
2023-05-16T03:54:30.757Z,2.40
2023-05-16T03:59:34.679Z,2.40
2023-05-16T04:04:36.948Z,2.25
2023-05-16T04:09:40.409Z,2.10
2023-05-16T04:14:42.887Z,2.72
2023-05-16T04:19:45.293Z,2.55
2023-05-16T04:24:47.560Z,2.42
2023-05-16T04:29:49.672Z,2.47
2023-05-16T04:34:54.223Z,2.55
2023-05-16T04:39:56.269Z,2.72
2023-05-16T04:44:58.700Z,1.63
2023-05-16T04:50:01.076Z,2.30
2023-05-16T04:55:03.424Z,2.10
2023-05-16T05:00:11.932Z,2.55
2023-05-16T05:05:14.234Z,2.47
2023-05-16T05:10:16.367Z,2.60
2023-05-16T05:15:19.157Z,2.13
2023-05-16T05:20:21.570Z,2.80
2023-05-16T05:25:23.689Z,2.50
2023-05-16T05:30:25.821Z,2.72
2023-05-16T05:35:28.336Z,2.38
2023-05-16T05:40:31.026Z,2.25
2023-05-16T05:45:33.378Z,2.08
2023-05-16T05:50:35.626Z,2.08
2023-05-16T05:55:37.828Z,1.90
2023-05-16T06:00:39.937Z,1.98
2023-05-16T06:05:42.229Z,2.13
2023-05-16T06:10:44.408Z,1.90
2023-05-16T06:15:53.420Z,2.15
2023-05-16T06:20:55.504Z,1.50
2023-05-16T06:25:57.685Z,1.52
2023-05-16T06:31:00.107Z,1.90
2023-05-16T06:36:02.289Z,1.25
2023-05-16T06:41:04.419Z,1.95
2023-05-16T06:46:06.751Z,1.70
2023-05-16T06:51:08.941Z,1.40
2023-05-16T06:56:11.158Z,1.48
2023-05-16T07:01:13.415Z,1.27
2023-05-16T07:06:15.687Z,1.98
2023-05-16T07:11:17.909Z,1.52
2023-05-16T07:16:20.201Z,1.33
2023-05-16T07:21:22.375Z,1.25
2023-05-16T07:26:24.648Z,1.30
2023-05-16T07:31:26.907Z,1.33
2023-05-16T07:36:29.161Z,1.23
2023-05-16T07:41:31.403Z,1.25
2023-05-16T07:46:33.723Z,1.25
2023-05-16T07:51:36.791Z,1.38
2023-05-16T07:56:39.156Z,0.95
2023-05-16T08:01:41.427Z,1.30
2023-05-16T08:06:43.606Z,1.13
2023-05-16T08:11:46.407Z,1.23
2023-05-16T08:16:49.365Z,1.20
2023-05-16T08:21:52.051Z,1.00
2023-05-16T08:26:54.493Z,0.93
2023-05-16T08:31:57.000Z,0.98
2023-05-16T08:37:00.327Z,1.00
2023-05-16T08:42:05.366Z,0.70
2023-05-16T08:47:13.920Z,2.40
2023-05-16T08:52:19.438Z,1.23
2023-05-16T08:57:21.961Z,0.80
2023-05-16T09:02:24.405Z,1.33
2023-05-16T09:07:26.594Z,0.93
2023-05-16T09:12:28.937Z,1.00
2023-05-16T09:17:41.566Z,0.80
2023-05-16T09:23:10.411Z,1.00
2023-05-16T09:28:12.635Z,0.77
2023-05-16T09:33:15.620Z,0.90
2023-05-16T09:38:17.971Z,0.85
2023-05-16T09:43:23.465Z,0.80
2023-05-16T09:48:28.473Z,0.57
2023-05-16T09:53:34.760Z,0.73
2023-05-16T09:58:39.305Z,0.80
2023-05-16T10:03:44.090Z,1.10
2023-05-16T10:08:47.963Z,0.82
2023-05-16T10:13:53.173Z,0.80
2023-05-16T10:18:56.362Z,0.73
2023-05-16T10:24:03.157Z,0.90
2023-05-16T10:29:06.093Z,0.98
2023-05-16T10:34:08.215Z,1.00
2023-05-16T10:39:12.057Z,0.70
2023-05-16T10:44:18.271Z,1.30
2023-05-16T10:49:22.817Z,1.23
2023-05-16T10:54:34.998Z,1.00
2023-05-16T10:59:58.906Z,0.95
2023-05-16T11:05:02.824Z,0.88
2023-05-16T11:10:16.170Z,0.63
2023-05-16T11:15:28.432Z,0.90
2023-05-16T11:20:32.654Z,0.90
2023-05-16T11:25:41.417Z,1.33
2023-05-16T11:30:46.201Z,0.70
2023-05-16T11:36:14.606Z,1.25
2023-05-16T11:41:18.717Z,0.75
2023-05-16T11:46:21.051Z,0.57
2023-05-16T11:51:23.544Z,0.80
2023-05-16T11:56:27.645Z,1.00
2023-05-16T12:01:39.985Z,0.70
2023-05-16T12:06:47.728Z,0.90
2023-05-16T12:11:56.319Z,0.77
2023-05-16T12:16:59.084Z,0.93
2023-05-16T12:22:01.766Z,0.90
2023-05-16T12:27:04.220Z,0.80
2023-05-16T12:32:08.179Z,0.98
2023-05-16T12:37:10.451Z,0.90
2023-05-16T12:42:13.687Z,0.90
2023-05-16T12:47:18.181Z,1.08
2023-05-16T12:52:21.742Z,0.90
2023-05-16T12:57:23.928Z,1.40
2023-05-16T13:02:26.333Z,0.82
2023-05-16T13:07:28.706Z,1.10
2023-05-16T13:12:31.110Z,1.05
2023-05-16T13:17:37.834Z,0.90
2023-05-16T13:22:44.017Z,0.70
2023-05-16T13:27:46.411Z,0.90
2023-05-16T13:32:48.726Z,0.60
2023-05-16T13:37:51.518Z,0.85
2023-05-16T13:42:53.836Z,0.98
2023-05-16T13:47:56.076Z,0.82
2023-05-16T13:52:58.324Z,1.00
2023-05-16T13:58:00.770Z,1.00
2023-05-16T14:03:03.144Z,1.63
2023-05-16T14:08:05.564Z,0.70
2023-05-16T14:13:07.877Z,0.93
2023-05-16T14:18:10.078Z,0.88
2023-05-16T14:23:12.198Z,0.98
2023-05-16T14:28:14.344Z,1.08
2023-05-16T14:33:17.054Z,1.00
2023-05-16T14:38:19.860Z,1.08
2023-05-16T14:43:24.617Z,0.88
2023-05-16T14:48:26.824Z,0.60
2023-05-16T14:53:28.976Z,1.10
2023-05-16T14:58:31.265Z,0.77
2023-05-16T15:03:43.266Z,0.80
2023-05-16T15:08:53.470Z,0.70
2023-05-16T15:13:57.323Z,0.80
2023-05-16T15:18:59.686Z,0.80
2023-05-16T15:24:28.164Z,0.80
2023-05-16T15:29:30.839Z,0.70
2023-05-16T15:34:58.361Z,0.80
2023-05-16T15:40:00.539Z,1.20
2023-05-16T15:45:03.101Z,1.05
2023-05-16T15:50:05.575Z,0.90
2023-05-16T15:55:08.129Z,0.98
2023-05-16T16:00:11.136Z,0.85
2023-05-16T16:05:16.379Z,0.70
2023-05-16T16:10:19.491Z,0.60
2023-05-16T16:15:22.651Z,0.88
2023-05-16T16:20:49.651Z,0.60
2023-05-16T16:25:52.054Z,0.80
2023-05-16T16:30:56.488Z,0.70
2023-05-16T16:35:59.324Z,0.55
2023-05-16T16:41:06.700Z,1.02
2023-05-16T16:46:09.112Z,0.82
2023-05-16T16:51:12.292Z,0.77
2023-05-16T16:56:14.617Z,0.70
2023-05-16T17:01:18.256Z,0.93
2023-05-16T17:06:20.548Z,0.90
2023-05-16T17:11:23.535Z,0.80
2023-05-16T17:16:30.536Z,1.05
2023-05-16T17:21:37.132Z,1.00
2023-05-16T17:26:39.796Z,1.25
2023-05-16T17:31:46.706Z,1.23
2023-05-16T17:36:49.622Z,1.75
2023-05-16T17:41:54.994Z,1.60
2023-05-16T17:46:57.501Z,1.60
2023-05-16T17:52:00.708Z,1.10
2023-05-16T17:57:04.231Z,1.30
2023-05-16T18:02:09.834Z,1.50
2023-05-16T18:07:12.137Z,1.35
2023-05-16T18:12:15.886Z,1.38
2023-05-16T18:17:18.376Z,1.38
2023-05-16T18:22:21.031Z,1.42
2023-05-16T18:27:23.245Z,1.20
2023-05-16T18:32:25.626Z,1.55
2023-05-16T18:37:27.895Z,1.48
2023-05-16T18:42:30.423Z,2.05
2023-05-16T18:47:33.372Z,2.08
2023-05-16T18:52:38.185Z,1.52
2023-05-16T18:57:40.580Z,1.55
2023-05-16T19:02:43.005Z,1.92
2023-05-16T19:07:45.419Z,1.58
2023-05-16T19:12:49.034Z,1.58
2023-05-16T19:17:51.417Z,1.77
2023-05-16T19:22:56.093Z,1.70
2023-05-16T19:27:58.373Z,1.50
2023-05-16T19:33:00.742Z,2.22
2023-05-16T19:38:02.945Z,1.60
2023-05-16T19:43:05.011Z,1.60
2023-05-16T19:48:08.684Z,1.48
2023-05-16T19:53:11.141Z,1.67
2023-05-16T19:58:13.405Z,1.23
2023-05-16T20:03:15.966Z,1.80
2023-05-16T20:08:18.149Z,1.70
2023-05-16T20:13:20.863Z,1.58
2023-05-16T20:18:23.047Z,1.35
2023-05-16T20:23:25.194Z,1.55
2023-05-16T20:28:27.385Z,2.38
2023-05-16T20:33:29.785Z,2.00
2023-05-16T20:38:31.996Z,1.50
2023-05-16T20:43:34.109Z,1.77
2023-05-16T20:48:36.306Z,1.85
2023-05-16T20:53:38.715Z,1.95
2023-05-16T20:58:42.058Z,1.83
2023-05-16T21:03:44.356Z,2.05
2023-05-16T21:08:46.422Z,2.58
2023-05-16T21:13:48.969Z,1.80
2023-05-16T21:18:51.323Z,2.05
2023-05-16T21:23:53.676Z,1.92
2023-05-16T21:28:56.221Z,2.45
2023-05-16T21:33:58.546Z,2.28
2023-05-16T21:39:01.006Z,2.22
2023-05-16T21:44:03.255Z,2.38
2023-05-16T21:49:05.444Z,2.20
2023-05-16T21:54:07.668Z,2.13
2023-05-16T21:59:09.800Z,2.10
2023-05-16T22:04:12.022Z,2.13
2023-05-16T22:09:14.370Z,2.22
2023-05-16T22:14:16.520Z,2.60
2023-05-16T22:19:18.627Z,2.13
2023-05-16T22:24:20.749Z,2.63
2023-05-16T22:29:22.863Z,2.53
2023-05-16T22:34:24.898Z,2.40
2023-05-16T22:39:26.975Z,2.42
2023-05-16T22:44:29.576Z,2.90
2023-05-16T22:49:31.685Z,2.40
2023-05-16T22:54:33.811Z,2.50
2023-05-16T22:59:36.104Z,2.78
2023-05-16T23:04:38.421Z,3.20
2023-05-16T23:09:40.817Z,2.80
2023-05-16T23:14:43.084Z,2.95
2023-05-16T23:19:45.345Z,2.67
2023-05-16T23:24:47.565Z,2.60
2023-05-16T23:29:49.823Z,2.88
2023-05-16T23:34:51.940Z,3.20
2023-05-16T23:39:54.301Z,2.65
2023-05-16T23:44:56.536Z,2.80
2023-05-16T23:49:58.848Z,2.58
2023-05-16T23:55:01.774Z,3.28
